createdAt,value
2023-01-29T00:01:49.555Z,95.33
2023-01-29T00:04:16.383Z,96.05
2023-01-29T00:06:43.994Z,96.81
2023-01-29T00:09:11.463Z,97.14
2023-01-29T00:11:38.050Z,97.59
2023-01-29T00:14:04.910Z,97.48
2023-01-29T00:16:31.621Z,97.66
2023-01-29T00:18:58.330Z,97.55
2023-01-29T00:21:24.910Z,97.71
2023-01-29T00:23:51.506Z,97.28
2023-01-29T00:26:18.243Z,96.50
2023-01-29T00:28:44.911Z,97.40
2023-01-29T00:31:14.511Z,97.98
2023-01-29T00:33:41.364Z,98.31
2023-01-29T00:36:11.191Z,98.83
2023-01-29T00:38:38.653Z,98.69
2023-01-29T00:41:28.537Z,99.31
2023-01-29T00:44:13.924Z,99.79
2023-01-29T00:46:40.717Z,100.00
2023-01-29T00:49:08.403Z,99.70
2023-01-29T00:51:36.746Z,100.00
2023-01-29T00:54:06.827Z,99.64
2023-01-29T00:56:36.016Z,99.59
2023-01-29T00:59:03.580Z,100.00
2023-01-29T01:01:49.073Z,100.00
2023-01-29T01:04:15.673Z,100.00
2023-01-29T01:06:43.533Z,100.00
2023-01-29T01:09:29.410Z,99.68
2023-01-29T01:11:56.086Z,100.00
2023-01-29T01:14:22.695Z,100.00
2023-01-29T01:16:49.530Z,100.00
2023-01-29T01:19:16.528Z,100.00
2023-01-29T01:21:48.216Z,100.00
2023-01-29T01:24:15.364Z,100.00
2023-01-29T01:26:42.097Z,100.00
2023-01-29T01:29:09.211Z,100.00
2023-01-29T01:31:35.943Z,100.00
2023-01-29T01:34:02.567Z,100.00
2023-01-29T01:36:29.229Z,100.00
2023-01-29T01:38:55.812Z,100.00
2023-01-29T01:41:24.135Z,99.93
2023-01-29T01:44:02.415Z,99.92
2023-01-29T01:46:31.262Z,100.00
2023-01-29T01:49:11.727Z,100.00
2023-01-29T01:51:43.193Z,99.86
2023-01-29T01:54:15.725Z,99.91
2023-01-29T01:56:47.014Z,100.00
2023-01-29T01:59:17.659Z,100.00
2023-01-29T02:01:51.330Z,100.00
2023-01-29T02:04:41.204Z,100.00
2023-01-29T02:07:30.631Z,100.00
2023-01-29T02:10:08.771Z,100.00
2023-01-29T02:12:37.038Z,100.00
2023-01-29T02:15:04.459Z,100.00
2023-01-29T02:17:32.225Z,100.00
2023-01-29T02:20:14.108Z,100.00
2023-01-29T02:23:09.954Z,100.00
2023-01-29T02:25:58.058Z,100.00
2023-01-29T02:28:45.444Z,100.00
2023-01-29T02:31:30.319Z,100.00
2023-01-29T02:34:05.999Z,100.00
2023-01-29T02:36:50.620Z,100.00
2023-01-29T02:39:20.522Z,100.00
2023-01-29T02:42:08.028Z,100.00
2023-01-29T02:44:40.559Z,100.00
2023-01-29T02:47:09.983Z,100.00
2023-01-29T02:49:45.262Z,100.00
2023-01-29T02:52:33.243Z,100.00
2023-01-29T02:55:08.843Z,100.00
2023-01-29T02:57:39.200Z,100.00
2023-01-29T03:00:09.184Z,100.00
2023-01-29T03:02:47.944Z,100.00
2023-01-29T03:05:25.464Z,100.00
2023-01-29T03:07:58.679Z,100.00
2023-01-29T03:10:31.941Z,100.00
2023-01-29T03:13:06.011Z,100.00
2023-01-29T03:15:42.406Z,100.00
2023-01-29T03:18:13.877Z,100.00
2023-01-29T03:20:54.258Z,100.00
2023-01-29T03:23:53.127Z,100.00
2023-01-29T03:26:41.650Z,100.00
2023-01-29T03:29:28.492Z,100.00
2023-01-29T03:32:08.854Z,100.00
2023-01-29T03:34:42.268Z,100.00
2023-01-29T03:37:20.280Z,100.00
2023-01-29T03:39:47.059Z,100.00
2023-01-29T03:42:33.932Z,100.00
2023-01-29T03:45:24.480Z,100.00
2023-01-29T03:48:06.698Z,100.00
2023-01-29T03:50:57.815Z,100.00
2023-01-29T03:53:36.960Z,100.00
2023-01-29T03:56:35.673Z,100.00
2023-01-29T03:59:12.154Z,100.00
2023-01-29T04:01:47.702Z,100.00
2023-01-29T04:04:32.095Z,100.00
2023-01-29T04:07:08.843Z,100.00
2023-01-29T04:09:43.914Z,100.00
2023-01-29T04:12:14.938Z,100.00
2023-01-29T04:14:41.702Z,100.00
2023-01-29T04:17:13.130Z,100.00
2023-01-29T04:19:40.254Z,100.00
2023-01-29T04:22:23.620Z,100.00
2023-01-29T04:24:51.260Z,100.00
2023-01-29T04:27:29.896Z,100.00
2023-01-29T04:30:15.793Z,100.00
2023-01-29T04:33:14.724Z,100.00
2023-01-29T04:35:51.501Z,100.00
2023-01-29T04:38:29.907Z,100.00
2023-01-29T04:41:08.515Z,100.00
2023-01-29T04:43:53.379Z,100.00
2023-01-29T04:46:44.347Z,100.00
2023-01-29T04:49:18.720Z,100.00
2023-01-29T04:51:48.481Z,100.00
2023-01-29T04:54:45.019Z,100.00
2023-01-29T04:57:11.647Z,100.00
2023-01-29T05:00:13.855Z,100.00
2023-01-29T05:02:44.897Z,100.00
2023-01-29T05:05:14.370Z,100.00
2023-01-29T05:07:44.071Z,100.00
2023-01-29T05:10:13.240Z,100.00
2023-01-29T05:12:42.915Z,100.00
2023-01-29T05:15:14.429Z,100.00
2023-01-29T05:17:41.097Z,100.00
2023-01-29T05:20:10.857Z,100.00
2023-01-29T05:22:39.761Z,100.00
2023-01-29T05:25:23.465Z,100.00
2023-01-29T05:28:10.446Z,100.00
2023-01-29T05:30:39.444Z,100.00
2023-01-29T05:33:14.208Z,100.00
2023-01-29T05:35:40.899Z,100.00
2023-01-29T05:38:08.042Z,100.00
2023-01-29T05:40:34.830Z,100.00
2023-01-29T05:43:01.584Z,100.00
2023-01-29T05:45:28.272Z,100.00
2023-01-29T05:48:00.715Z,100.00
2023-01-29T05:50:27.990Z,100.00
2023-01-29T05:52:59.433Z,100.00
2023-01-29T05:55:26.675Z,100.00
2023-01-29T05:57:53.352Z,100.00
2023-01-29T06:00:20.125Z,100.00
2023-01-29T06:02:46.761Z,100.00
2023-01-29T06:05:13.405Z,100.00
2023-01-29T06:07:45.176Z,100.00
2023-01-29T06:10:16.456Z,100.00
2023-01-29T06:12:43.895Z,100.00
2023-01-29T06:15:12.029Z,100.00
2023-01-29T06:17:38.605Z,100.00
2023-01-29T06:20:06.051Z,100.00
2023-01-29T06:22:33.448Z,100.00
2023-01-29T06:25:00.319Z,100.00
2023-01-29T06:27:27.062Z,100.00
2023-01-29T06:29:53.751Z,100.00
2023-01-29T06:32:20.371Z,100.00
2023-01-29T06:34:49.452Z,100.00
2023-01-29T06:37:16.430Z,100.00
2023-01-29T06:39:43.106Z,100.00
2023-01-29T06:42:10.161Z,100.00
2023-01-29T06:44:36.982Z,100.00
2023-01-29T06:47:03.629Z,100.00
2023-01-29T06:49:30.295Z,100.00
2023-01-29T06:51:57.451Z,100.00
2023-01-29T06:54:24.062Z,100.00
2023-01-29T06:56:52.092Z,100.00
2023-01-29T06:59:18.715Z,100.00
2023-01-29T07:01:45.419Z,100.00
2023-01-29T07:04:12.127Z,100.00
2023-01-29T07:06:38.791Z,100.00
2023-01-29T07:09:05.469Z,100.00
2023-01-29T07:11:33.994Z,100.00
2023-01-29T07:14:00.626Z,100.00
2023-01-29T07:16:27.444Z,100.00
2023-01-29T07:18:54.154Z,100.00
2023-01-29T07:21:20.754Z,100.00
2023-01-29T07:23:47.325Z,100.00
2023-01-29T07:26:13.897Z,100.00
2023-01-29T07:28:41.238Z,100.00
2023-01-29T07:31:11.509Z,100.00
2023-01-29T07:33:38.119Z,100.00
2023-01-29T07:36:09.248Z,100.00
2023-01-29T07:38:35.884Z,100.00
2023-01-29T07:41:03.337Z,100.00
2023-01-29T07:43:30.304Z,100.00
2023-01-29T07:45:57.096Z,100.00
2023-01-29T07:48:23.746Z,100.00
2023-01-29T07:50:56.978Z,100.00
2023-01-29T07:53:23.687Z,100.00
2023-01-29T07:55:50.517Z,100.00
2023-01-29T07:58:17.198Z,100.00
2023-01-29T08:00:44.357Z,100.00
2023-01-29T08:03:13.892Z,100.00
2023-01-29T08:05:40.475Z,100.00
2023-01-29T08:08:07.971Z,100.00
2023-01-29T08:10:39.227Z,100.00
2023-01-29T08:13:06.941Z,100.00
2023-01-29T08:15:34.077Z,100.00
2023-01-29T08:18:04.362Z,100.00
2023-01-29T08:20:31.014Z,100.00
2023-01-29T08:23:06.432Z,100.00
2023-01-29T08:25:34.178Z,100.00
2023-01-29T08:28:01.477Z,100.00
2023-01-29T08:30:31.180Z,100.00
2023-01-29T08:32:57.920Z,100.00
2023-01-29T08:35:25.178Z,100.00
2023-01-29T08:38:03.473Z,100.00
2023-01-29T08:40:32.826Z,100.00
2023-01-29T08:43:02.295Z,100.00
2023-01-29T08:45:30.525Z,100.00
2023-01-29T08:47:57.157Z,100.00
2023-01-29T08:50:23.873Z,100.00
2023-01-29T08:52:51.223Z,100.00
2023-01-29T08:55:18.317Z,100.00
2023-01-29T08:57:45.181Z,100.00
2023-01-29T09:00:12.507Z,100.00
2023-01-29T09:02:39.222Z,100.00
2023-01-29T09:05:06.434Z,100.00
2023-01-29T09:07:33.393Z,100.00
2023-01-29T09:09:59.972Z,100.00
2023-01-29T09:12:26.594Z,100.00
2023-01-29T09:14:53.219Z,100.00
2023-01-29T09:17:19.875Z,100.00
2023-01-29T09:19:46.537Z,100.00
2023-01-29T09:22:13.231Z,100.00
2023-01-29T09:24:39.893Z,100.00
2023-01-29T09:27:06.792Z,100.00
2023-01-29T09:29:35.748Z,100.00
2023-01-29T09:32:04.217Z,100.00
2023-01-29T09:34:30.780Z,100.00
2023-01-29T09:36:57.389Z,100.00
2023-01-29T09:39:24.126Z,100.00
2023-01-29T09:42:06.270Z,100.00
2023-01-29T09:44:47.081Z,100.00
2023-01-29T09:47:17.075Z,100.00
2023-01-29T09:50:05.695Z,100.00
2023-01-29T09:52:37.886Z,100.00
2023-01-29T09:55:25.042Z,100.00
2023-01-29T09:58:06.281Z,100.00
2023-01-29T10:00:38.752Z,100.00
2023-01-29T10:03:14.321Z,100.00
2023-01-29T10:05:58.809Z,100.00
2023-01-29T10:08:52.724Z,100.00
2023-01-29T10:11:58.008Z,100.00
2023-01-29T10:14:39.790Z,100.00
2023-01-29T10:17:30.536Z,100.00
2023-01-29T10:19:57.147Z,100.00
2023-01-29T10:22:35.779Z,100.00
2023-01-29T10:25:11.586Z,100.00
2023-01-29T10:27:41.245Z,100.00
2023-01-29T10:30:21.223Z,100.00
2023-01-29T10:32:49.977Z,100.00
2023-01-29T10:35:28.149Z,100.00
2023-01-29T10:37:55.083Z,100.00
2023-01-29T10:40:37.146Z,100.00
2023-01-29T10:43:11.881Z,100.00
2023-01-29T10:46:01.195Z,100.00
2023-01-29T10:48:36.647Z,100.00
2023-01-29T10:51:21.847Z,100.00
2023-01-29T10:54:05.218Z,100.00
2023-01-29T10:56:59.486Z,100.00
2023-01-29T10:59:29.116Z,100.00
2023-01-29T11:02:00.291Z,100.00
2023-01-29T11:04:28.722Z,100.00
2023-01-29T11:06:55.354Z,100.00
2023-01-29T11:09:29.277Z,100.00
2023-01-29T11:12:09.644Z,100.00
2023-01-29T11:14:54.195Z,100.00
2023-01-29T11:17:23.617Z,100.00
2023-01-29T11:19:52.403Z,100.00
2023-01-29T11:22:21.801Z,100.00
2023-01-29T11:25:25.369Z,100.00
2023-01-29T11:27:58.324Z,100.00
2023-01-29T11:30:38.357Z,100.00
2023-01-29T11:33:21.936Z,100.00
2023-01-29T11:35:48.573Z,100.00
2023-01-29T11:38:26.989Z,100.00
2023-01-29T11:41:04.596Z,100.00
2023-01-29T11:43:32.292Z,100.00
2023-01-29T11:46:03.899Z,100.00
2023-01-29T11:48:51.451Z,100.00
2023-01-29T11:51:29.301Z,100.00
2023-01-29T11:54:05.353Z,100.00
2023-01-29T11:56:41.868Z,100.00
2023-01-29T11:59:24.315Z,100.00
2023-01-29T12:01:50.948Z,100.00
2023-01-29T12:04:25.804Z,100.00
2023-01-29T12:06:54.513Z,100.00
2023-01-29T12:09:24.660Z,100.00
2023-01-29T12:11:52.646Z,100.00
2023-01-29T12:14:36.916Z,100.00
2023-01-29T12:17:13.944Z,100.00
2023-01-29T12:19:43.831Z,100.00
2023-01-29T12:22:36.356Z,100.00
2023-01-29T12:25:21.392Z,100.00
2023-01-29T12:27:54.008Z,100.00
2023-01-29T12:30:30.063Z,100.00
2023-01-29T12:33:36.583Z,100.00
2023-01-29T12:36:14.409Z,100.00
2023-01-29T12:38:43.756Z,100.00
2023-01-29T12:41:30.230Z,100.00
2023-01-29T12:44:03.017Z,100.00
2023-01-29T12:46:34.742Z,100.00
2023-01-29T12:49:04.859Z,100.00
2023-01-29T12:51:38.720Z,100.00
2023-01-29T12:54:09.762Z,100.00
2023-01-29T12:56:41.212Z,100.00
2023-01-29T12:59:22.665Z,100.00
2023-01-29T13:01:55.029Z,100.00
2023-01-29T13:04:45.553Z,100.00
2023-01-29T13:07:31.409Z,100.00
2023-01-29T13:10:07.438Z,100.00
2023-01-29T13:12:35.430Z,100.00
2023-01-29T13:15:15.465Z,100.00
2023-01-29T13:17:57.931Z,100.00
2023-01-29T13:20:30.331Z,100.00
2023-01-29T13:23:02.891Z,100.00
2023-01-29T13:25:29.459Z,100.00
2023-01-29T13:27:56.161Z,100.00
2023-01-29T13:30:29.079Z,100.00
2023-01-29T13:33:09.439Z,100.00
2023-01-29T13:35:43.548Z,100.00
2023-01-29T13:38:29.658Z,100.00
2023-01-29T13:41:05.221Z,100.00
2023-01-29T13:43:37.201Z,100.00
2023-01-29T13:46:17.808Z,100.00
2023-01-29T13:48:49.548Z,100.00
2023-01-29T13:51:22.085Z,100.00
2023-01-29T13:54:03.989Z,100.00
2023-01-29T13:56:42.128Z,100.00
2023-01-29T13:59:22.493Z,100.00
2023-01-29T14:01:49.029Z,100.00
2023-01-29T14:04:31.085Z,100.00
2023-01-29T14:07:06.540Z,100.00
2023-01-29T14:09:34.814Z,100.00
2023-01-29T14:12:01.472Z,100.00
2023-01-29T14:14:56.596Z,100.00
2023-01-29T14:17:27.213Z,100.00
2023-01-29T14:20:03.808Z,100.00
2023-01-29T14:22:33.798Z,100.00
2023-01-29T14:25:05.037Z,100.00
2023-01-29T14:27:32.877Z,100.00
2023-01-29T14:30:17.765Z,100.00
2023-01-29T14:32:49.155Z,100.00
2023-01-29T14:35:20.216Z,100.00
2023-01-29T14:37:52.605Z,100.00
2023-01-29T14:40:26.110Z,100.00
2023-01-29T14:43:06.320Z,100.00
2023-01-29T14:45:38.311Z,100.00
2023-01-29T14:48:10.882Z,100.00
2023-01-29T14:50:37.852Z,100.00
2023-01-29T14:53:31.318Z,100.00
2023-01-29T14:56:12.571Z,100.00
2023-01-29T14:58:45.131Z,100.00
2023-01-29T15:01:32.561Z,100.00
2023-01-29T15:04:15.392Z,100.00
2023-01-29T15:06:46.913Z,100.00
2023-01-29T15:09:22.087Z,100.00
2023-01-29T15:12:44.102Z,100.00
2023-01-29T15:15:42.455Z,100.00
2023-01-29T15:18:15.575Z,100.00
2023-01-29T15:20:44.127Z,100.00
2023-01-29T15:23:34.207Z,100.00
2023-01-29T15:26:03.720Z,100.00
2023-01-29T15:28:32.252Z,100.00
2023-01-29T15:31:01.736Z,100.00
2023-01-29T15:33:28.741Z,100.00
2023-01-29T15:36:08.911Z,100.00
2023-01-29T15:38:36.007Z,100.00
2023-01-29T15:41:15.081Z,100.00
2023-01-29T15:43:49.984Z,100.00
2023-01-29T15:46:21.024Z,100.00
2023-01-29T15:48:49.346Z,100.00
2023-01-29T15:51:18.637Z,100.00
2023-01-29T15:53:59.375Z,100.00
2023-01-29T15:56:29.488Z,100.00
2023-01-29T15:58:58.976Z,100.00
2023-01-29T16:01:28.870Z,100.00
2023-01-29T16:03:59.384Z,100.00
2023-01-29T16:06:26.940Z,100.00
2023-01-29T16:08:55.408Z,100.00
2023-01-29T16:11:22.340Z,100.00
2023-01-29T16:13:50.646Z,100.00
2023-01-29T16:16:25.034Z,100.00
2023-01-29T16:18:59.971Z,100.00
2023-01-29T16:21:35.581Z,100.00
2023-01-29T16:24:14.098Z,100.00
2023-01-29T16:26:47.208Z,100.00
2023-01-29T16:29:23.863Z,100.00
2023-01-29T16:32:00.643Z,100.00
2023-01-29T16:34:37.849Z,100.00
2023-01-29T16:37:27.338Z,100.00
2023-01-29T16:39:54.698Z,100.00
2023-01-29T16:42:43.256Z,100.00
2023-01-29T16:45:28.079Z,100.00
2023-01-29T16:48:02.581Z,100.00
2023-01-29T16:50:40.678Z,100.00
2023-01-29T16:53:23.327Z,100.00
2023-01-29T16:55:52.572Z,100.00
2023-01-29T16:58:21.356Z,100.00
2023-01-29T17:00:56.599Z,100.00
2023-01-29T17:03:25.827Z,100.00
2023-01-29T17:05:53.076Z,100.00
2023-01-29T17:08:34.457Z,100.00
2023-01-29T17:11:01.942Z,100.00
2023-01-29T17:13:44.102Z,100.00
2023-01-29T17:16:26.386Z,100.00
2023-01-29T17:18:53.335Z,100.00
2023-01-29T17:21:20.365Z,100.00
2023-01-29T17:23:46.957Z,100.00
2023-01-29T17:26:15.130Z,100.00
2023-01-29T17:28:42.821Z,100.00
2023-01-29T17:31:09.815Z,100.00
2023-01-29T17:33:41.180Z,100.00
2023-01-29T17:36:12.492Z,100.00
2023-01-29T17:38:39.652Z,100.00
2023-01-29T17:41:12.368Z,100.00
2023-01-29T17:43:39.142Z,100.00
2023-01-29T17:46:06.136Z,100.00
2023-01-29T17:48:32.817Z,100.00
2023-01-29T17:51:03.600Z,100.00
2023-01-29T17:53:44.320Z,100.00
2023-01-29T17:56:18.116Z,100.00
2023-01-29T17:58:44.936Z,100.00
2023-01-29T18:01:12.160Z,100.00
2023-01-29T18:03:38.760Z,100.00
2023-01-29T18:06:08.710Z,100.00
2023-01-29T18:08:38.352Z,100.00
2023-01-29T18:11:05.599Z,100.00
2023-01-29T18:13:32.547Z,100.00
2023-01-29T18:15:59.442Z,100.00
2023-01-29T18:18:26.261Z,100.00
2023-01-29T18:20:52.889Z,100.00
2023-01-29T18:23:19.759Z,100.00
2023-01-29T18:25:46.590Z,100.00
2023-01-29T18:28:17.128Z,100.00
2023-01-29T18:30:47.134Z,100.00
2023-01-29T18:33:15.023Z,100.00
2023-01-29T18:35:43.201Z,100.00
2023-01-29T18:38:09.908Z,100.00
2023-01-29T18:40:36.615Z,100.00
2023-01-29T18:43:04.355Z,100.00
2023-01-29T18:45:31.320Z,100.00
2023-01-29T18:47:58.030Z,100.00
2023-01-29T18:50:26.321Z,100.00
2023-01-29T18:52:56.259Z,100.00
2023-01-29T18:55:23.539Z,100.00
2023-01-29T18:58:28.125Z,100.00
2023-01-29T19:00:41.003Z,100.00
2023-01-29T19:03:07.661Z,100.00
2023-01-29T19:05:34.393Z,100.00
2023-01-29T19:08:01.940Z,100.00
2023-01-29T19:10:28.736Z,100.00
2023-01-29T19:12:55.410Z,100.00
2023-01-29T19:15:22.952Z,100.00
2023-01-29T19:17:53.071Z,100.00
2023-01-29T19:20:20.370Z,100.00
2023-01-29T19:22:47.096Z,100.00
2023-01-29T19:25:13.994Z,100.00
2023-01-29T19:27:40.837Z,100.00
2023-01-29T19:30:10.312Z,100.00
2023-01-29T19:32:36.942Z,100.00
2023-01-29T19:35:03.914Z,100.00
2023-01-29T19:37:30.943Z,100.00
2023-01-29T19:39:58.090Z,100.00
2023-01-29T19:42:24.787Z,100.00
2023-01-29T19:44:52.630Z,100.00
2023-01-29T19:47:19.334Z,100.00
2023-01-29T19:49:46.122Z,100.00
2023-01-29T19:52:49.822Z,100.00
2023-01-29T19:55:18.810Z,100.00
2023-01-29T19:57:46.074Z,100.00
2023-01-29T20:00:15.658Z,100.00
2023-01-29T20:02:42.313Z,100.00
2023-01-29T20:05:12.062Z,100.00
2023-01-29T20:07:41.197Z,100.00
2023-01-29T20:10:11.394Z,100.00
2023-01-29T20:12:38.492Z,100.00
2023-01-29T20:15:05.500Z,100.00
2023-01-29T20:17:32.269Z,100.00
2023-01-29T20:19:58.957Z,100.00
2023-01-29T20:22:26.791Z,100.00
2023-01-29T20:24:54.100Z,100.00
2023-01-29T20:27:20.729Z,100.00
2023-01-29T20:29:47.336Z,100.00
2023-01-29T20:32:14.715Z,100.00
2023-01-29T20:34:41.632Z,100.00
2023-01-29T20:37:08.197Z,100.00
2023-01-29T20:39:34.816Z,100.00
2023-01-29T20:42:01.857Z,100.00
2023-01-29T20:44:28.472Z,100.00
2023-01-29T20:46:55.129Z,100.00
2023-01-29T20:49:21.860Z,100.00
2023-01-29T20:51:48.433Z,100.00
2023-01-29T20:54:15.165Z,100.00
2023-01-29T20:56:43.558Z,100.00
2023-01-29T20:59:11.176Z,100.00
2023-01-29T21:01:37.917Z,100.00
2023-01-29T21:04:04.519Z,100.00
2023-01-29T21:06:31.398Z,100.00
2023-01-29T21:08:58.066Z,100.00
2023-01-29T21:11:24.733Z,100.00
2023-01-29T21:13:54.859Z,100.00
2023-01-29T21:16:21.480Z,100.00
2023-01-29T21:18:48.069Z,100.00
2023-01-29T21:21:14.686Z,100.00
2023-01-29T21:23:41.317Z,100.00
2023-01-29T21:26:08.083Z,100.00
2023-01-29T21:28:34.786Z,100.00
2023-01-29T21:31:14.487Z,100.00
2023-01-29T21:33:41.186Z,100.00
2023-01-29T21:36:08.583Z,100.00
2023-01-29T21:38:35.211Z,100.00
2023-01-29T21:41:03.278Z,100.00
2023-01-29T21:43:30.342Z,100.00
2023-01-29T21:45:58.808Z,100.00
2023-01-29T21:48:26.009Z,100.00
2023-01-29T21:50:52.856Z,100.00
2023-01-29T21:53:19.936Z,100.00
2023-01-29T21:55:47.136Z,100.00
2023-01-29T21:58:14.633Z,100.00
2023-01-29T22:00:41.467Z,100.00
2023-01-29T22:03:08.294Z,100.00
2023-01-29T22:05:35.018Z,100.00
2023-01-29T22:08:01.664Z,100.00
2023-01-29T22:10:28.889Z,100.00
2023-01-29T22:12:55.810Z,100.00
2023-01-29T22:15:24.023Z,100.00
2023-01-29T22:17:51.050Z,100.00
2023-01-29T22:20:19.025Z,100.00
2023-01-29T22:22:45.887Z,100.00
2023-01-29T22:25:12.741Z,100.00
2023-01-29T22:27:39.345Z,100.00
2023-01-29T22:30:06.638Z,100.00
2023-01-29T22:32:33.378Z,100.00
2023-01-29T22:34:59.998Z,100.00
2023-01-29T22:37:26.693Z,100.00
2023-01-29T22:39:53.271Z,100.00
2023-01-29T22:42:20.828Z,100.00
2023-01-29T22:44:48.558Z,100.00
2023-01-29T22:47:15.568Z,100.00
2023-01-29T22:49:44.589Z,100.00
2023-01-29T22:52:11.593Z,100.00
2023-01-29T22:54:42.661Z,100.00
2023-01-29T22:57:12.027Z,100.00
2023-01-29T22:59:38.825Z,100.00
2023-01-29T23:02:06.414Z,100.00
2023-01-29T23:04:33.432Z,100.00
2023-01-29T23:07:00.110Z,100.00
2023-01-29T23:09:26.756Z,100.00
2023-01-29T23:11:53.405Z,100.00
2023-01-29T23:14:20.061Z,100.00
2023-01-29T23:16:46.710Z,100.00
2023-01-29T23:19:13.344Z,100.00
2023-01-29T23:21:39.990Z,100.00
2023-01-29T23:24:08.061Z,100.00
2023-01-29T23:26:53.613Z,100.00
2023-01-29T23:29:20.379Z,100.00
2023-01-29T23:31:47.032Z,100.00
2023-01-29T23:34:14.294Z,100.00
2023-01-29T23:36:41.524Z,100.00
2023-01-29T23:39:08.678Z,100.00
2023-01-29T23:41:35.515Z,100.00
2023-01-29T23:44:02.150Z,100.00
2023-01-29T23:46:28.789Z,100.00
2023-01-29T23:48:55.466Z,100.00
2023-01-29T23:51:22.172Z,100.00
2023-01-29T23:53:48.806Z,100.00
2023-01-29T23:56:15.399Z,100.00
2023-01-29T23:58:42.101Z,100.00
